createdAt,value
2022-11-10T00:00:58.602Z,101292.66
2022-11-10T00:03:28.381Z,101303.97
2022-11-10T00:05:56.614Z,101301.25
2022-11-10T00:08:25.859Z,101304.81
2022-11-10T00:11:01.614Z,101315.69
2022-11-10T00:13:31.186Z,101320.31
2022-11-10T00:16:19.603Z,101329.31
2022-11-10T00:18:47.456Z,101326.81
2022-11-10T00:21:15.924Z,101329.53
2022-11-10T00:23:47.484Z,101328.69
2022-11-10T00:26:18.392Z,101316.56
2022-11-10T00:28:46.257Z,101325.13
2022-11-10T00:31:14.300Z,101323.25
2022-11-10T00:33:44.874Z,101278.91
2022-11-10T00:36:12.762Z,101319.66
2022-11-10T00:38:40.658Z,101313.19
2022-11-10T00:41:09.958Z,101322.63
2022-11-10T00:43:38.125Z,101331.66
2022-11-10T00:46:06.513Z,101324.94
2022-11-10T00:48:34.354Z,101327.47
2022-11-10T00:51:02.197Z,101350.72
2022-11-10T00:53:30.350Z,101348.78
2022-11-10T00:55:58.191Z,101356.97
2022-11-10T00:58:27.486Z,101353.44
2022-11-10T01:01:02.412Z,101358.03
2022-11-10T01:03:30.390Z,101356.97
2022-11-10T01:05:58.264Z,101353.63
2022-11-10T01:08:26.172Z,101346.06
2022-11-10T01:10:54.042Z,101343.38
2022-11-10T01:13:22.446Z,101361.59
2022-11-10T01:15:51.994Z,101364.09
2022-11-10T01:18:19.879Z,101361.38
2022-11-10T01:20:51.526Z,101370.38
2022-11-10T01:23:20.064Z,101369.53
2022-11-10T01:25:48.311Z,101365.97
2022-11-10T01:28:16.163Z,101375.00
2022-11-10T01:30:44.018Z,101373.31
2022-11-10T01:33:13.559Z,101374.16
2022-11-10T01:35:41.436Z,101381.47
2022-11-10T01:38:09.328Z,101388.59
2022-11-10T01:40:37.272Z,101391.34
2022-11-10T01:43:05.473Z,101394.91
2022-11-10T01:45:50.051Z,101393.22
2022-11-10T01:48:21.292Z,101348.66
2022-11-10T01:50:49.184Z,101381.47
2022-11-10T01:53:20.322Z,101383.16
2022-11-10T01:55:48.595Z,101386.13
2022-11-10T01:58:17.409Z,101368.09
2022-11-10T02:00:45.423Z,101398.91
2022-11-10T02:03:16.391Z,101378.16
2022-11-10T02:05:45.903Z,101404.56
2022-11-10T02:08:15.632Z,101410.00
2022-11-10T02:10:43.547Z,101411.69
2022-11-10T02:13:11.878Z,101417.34
2022-11-10T02:15:39.762Z,101416.28
2022-11-10T02:18:07.716Z,101417.97
2022-11-10T02:20:35.609Z,101414.41
2022-11-10T02:23:16.891Z,101415.44
2022-11-10T02:25:44.838Z,101424.47
2022-11-10T02:28:12.707Z,101415.25
2022-11-10T02:30:40.602Z,101423.41
2022-11-10T02:33:09.798Z,101428.88
2022-11-10T02:35:37.680Z,101428.03
2022-11-10T02:38:05.557Z,101429.91
2022-11-10T02:40:34.857Z,101428.03
2022-11-10T02:43:03.161Z,101429.91
2022-11-10T02:45:31.065Z,101428.22
2022-11-10T02:47:58.932Z,101425.72
2022-11-10T02:50:26.761Z,101433.25
2022-11-10T02:52:55.850Z,101432.84
2022-11-10T02:55:23.706Z,101428.88
2022-11-10T02:57:52.919Z,101428.88
2022-11-10T03:00:19.787Z,101432.63
2022-11-10T03:02:47.680Z,101439.75
2022-11-10T03:05:15.603Z,101447.09
2022-11-10T03:07:43.476Z,101447.94
2022-11-10T03:10:11.420Z,101456.94
2022-11-10T03:12:39.265Z,101462.41
2022-11-10T03:15:10.879Z,101467.00
2022-11-10T03:17:38.764Z,101468.88
2022-11-10T03:20:07.181Z,101475.38
2022-11-10T03:22:35.167Z,101484.19
2022-11-10T03:25:03.048Z,101480.63
2022-11-10T03:27:31.245Z,101472.44
2022-11-10T03:29:59.161Z,101462.59
2022-11-10T03:32:28.397Z,101465.31
2022-11-10T03:34:56.267Z,101468.88
2022-11-10T03:37:24.566Z,101466.16
2022-11-10T03:39:52.426Z,101477.06
2022-11-10T03:42:20.326Z,101492.56
2022-11-10T03:44:48.516Z,101493.41
2022-11-10T03:47:16.679Z,101486.06
2022-11-10T03:49:45.911Z,101478.94
2022-11-10T03:52:13.804Z,101486.91
2022-11-10T03:54:41.691Z,101504.50
2022-11-10T03:57:09.568Z,101513.50
2022-11-10T03:59:37.532Z,101515.38
2022-11-10T04:02:05.548Z,101512.66
2022-11-10T04:07:21.633Z,101522.53
2022-11-10T04:09:49.466Z,101526.09
2022-11-10T04:12:34.878Z,101525.44
2022-11-10T04:15:20.149Z,101532.78
2022-11-10T04:17:50.305Z,101538.84
2022-11-10T04:20:18.233Z,101533.59
2022-11-10T04:23:07.750Z,101532.75
2022-11-10T04:25:55.627Z,101542.22
2022-11-10T04:28:23.527Z,101551.03
2022-11-10T04:30:51.455Z,101556.47
2022-11-10T04:33:19.865Z,101559.19
2022-11-10T04:35:47.968Z,101563.78
2022-11-10T04:38:17.207Z,101564.63
2022-11-10T04:40:45.104Z,101557.91
2022-11-10T04:43:13.256Z,101566.28
2022-11-10T04:45:41.185Z,101562.72
2022-11-10T04:48:09.037Z,101571.31
2022-11-10T04:50:36.970Z,101578.03
2022-11-10T04:53:05.112Z,101576.97
2022-11-10T04:55:34.399Z,101548.47
2022-11-10T04:58:02.278Z,101593.13
2022-11-10T05:00:33.593Z,101601.31
2022-11-10T05:03:06.202Z,101615.97
2022-11-10T05:05:34.273Z,101617.63
2022-11-10T05:08:02.538Z,101618.47
2022-11-10T05:10:30.439Z,101623.09
2022-11-10T05:13:00.023Z,101617.63
2022-11-10T05:15:27.903Z,101617.63
2022-11-10T05:17:56.272Z,101615.97
2022-11-10T05:20:24.916Z,101623.28
2022-11-10T05:23:10.885Z,101631.47
2022-11-10T05:25:39.436Z,101628.53
2022-11-10T05:28:09.929Z,101639.63
2022-11-10T05:30:37.932Z,101651.38
2022-11-10T05:33:06.109Z,101649.69
2022-11-10T05:35:34.058Z,101647.81
2022-11-10T05:38:01.929Z,101656.81
2022-11-10T05:40:30.002Z,101646.53
2022-11-10T05:42:58.193Z,101655.97
2022-11-10T05:45:28.327Z,101655.97
2022-11-10T05:47:56.217Z,101659.53
2022-11-10T05:50:24.260Z,101659.53
2022-11-10T05:52:54.173Z,101667.50
2022-11-10T05:55:23.065Z,101662.25
2022-11-10T05:57:51.704Z,101676.72
2022-11-10T06:00:21.791Z,101683.00
2022-11-10T06:02:59.859Z,101679.44
2022-11-10T06:05:31.135Z,101681.34
2022-11-10T06:07:59.628Z,101679.44
2022-11-10T06:10:27.664Z,101694.94
2022-11-10T06:12:55.972Z,101692.22
2022-11-10T06:15:23.959Z,101692.03
2022-11-10T06:17:51.890Z,101700.19
2022-11-10T06:20:21.345Z,101697.47
2022-11-10T06:22:59.800Z,101700.19
2022-11-10T06:25:27.953Z,101700.19
2022-11-10T06:27:55.797Z,101677.94
2022-11-10T06:30:23.874Z,101612.41
2022-11-10T06:32:53.034Z,101711.94
2022-11-10T06:35:22.522Z,101719.28
2022-11-10T06:37:58.736Z,101724.72
2022-11-10T06:40:26.652Z,101727.44
2022-11-10T06:42:54.831Z,101726.41
2022-11-10T06:45:22.729Z,101740.63
2022-11-10T06:47:50.622Z,101726.41
2022-11-10T06:50:18.748Z,101734.34
2022-11-10T06:52:54.444Z,101745.47
2022-11-10T06:55:22.404Z,101648.19
2022-11-10T06:57:50.352Z,101742.72
2022-11-10T07:00:19.040Z,101762.63
2022-11-10T07:02:47.194Z,101765.34
2022-11-10T07:05:16.380Z,101761.34
2022-11-10T07:07:44.345Z,101777.50
2022-11-10T07:10:13.910Z,101771.63
2022-11-10T07:12:44.632Z,101784.41
2022-11-10T07:15:12.520Z,101789.25
2022-11-10T07:17:41.452Z,101759.41
2022-11-10T07:20:10.448Z,101801.81
2022-11-10T07:22:38.956Z,101800.75
2022-11-10T07:25:07.425Z,101805.41
2022-11-10T07:27:36.772Z,101811.66
2022-11-10T07:30:05.225Z,101819.81
2022-11-10T07:32:35.093Z,101823.63
2022-11-10T07:35:03.054Z,101832.63
2022-11-10T07:37:30.939Z,101830.72
2022-11-10T07:39:58.777Z,101833.44
2022-11-10T07:42:26.911Z,101836.41
2022-11-10T07:44:56.175Z,101834.28
2022-11-10T07:47:25.263Z,101828.00
2022-11-10T07:49:53.159Z,101837.03
2022-11-10T07:52:21.718Z,101843.31
2022-11-10T07:54:49.584Z,101853.16
2022-11-10T07:57:17.441Z,101854.22
2022-11-10T07:59:45.339Z,101856.94
2022-11-10T08:02:14.856Z,101863.22
2022-11-10T08:04:42.795Z,101842.59
2022-11-10T08:07:10.782Z,101869.69
2022-11-10T08:09:38.763Z,101876.00
2022-11-10T08:12:07.235Z,101885.00
2022-11-10T08:14:35.310Z,101890.47
2022-11-10T08:17:03.290Z,101840.66
2022-11-10T08:19:32.602Z,101887.75
2022-11-10T08:22:00.816Z,101899.47
2022-11-10T08:24:28.709Z,101898.63
2022-11-10T08:26:57.543Z,101864.56
2022-11-10T08:29:25.485Z,101910.38
2022-11-10T08:31:54.351Z,101899.66
2022-11-10T08:34:23.053Z,101913.09
2022-11-10T08:36:54.330Z,101916.84
2022-11-10T08:39:38.139Z,101909.94
2022-11-10T08:42:07.454Z,101885.28
2022-11-10T08:44:35.360Z,101920.44
2022-11-10T08:47:03.305Z,101931.53
2022-11-10T08:49:31.228Z,101928.59
2022-11-10T08:52:00.790Z,101935.94
2022-11-10T08:54:28.724Z,101934.06
2022-11-10T08:56:56.951Z,101925.03
2022-11-10T08:59:24.783Z,101940.53
2022-11-10T09:01:52.901Z,101950.41
2022-11-10T09:04:20.849Z,101941.38
2022-11-10T09:06:48.808Z,101949.56
2022-11-10T09:09:18.652Z,101948.94
2022-11-10T09:11:46.532Z,101959.41
2022-11-10T09:14:14.533Z,101959.41
2022-11-10T09:16:42.416Z,101957.53
2022-11-10T09:19:13.148Z,101959.22
2022-11-10T09:21:43.694Z,101955.47
2022-11-10T09:24:11.601Z,101956.28
2022-11-10T09:26:41.113Z,101953.78
2022-11-10T09:29:09.001Z,101959.00
2022-11-10T09:31:36.902Z,101963.63
2022-11-10T09:34:04.818Z,101961.72
2022-11-10T09:36:33.051Z,101944.28
2022-11-10T09:39:01.063Z,101963.63
2022-11-10T09:41:29.951Z,101952.75
2022-11-10T09:44:03.203Z,101960.91
2022-11-10T09:46:34.030Z,101979.13
2022-11-10T09:49:03.131Z,101925.25
2022-11-10T09:51:34.264Z,101974.47
2022-11-10T09:54:03.750Z,101984.59
2022-11-10T09:56:33.316Z,101982.72
2022-11-10T09:59:04.365Z,101987.31
2022-11-10T10:01:36.513Z,101988.16
2022-11-10T10:04:14.886Z,101975.06
2022-11-10T10:07:09.475Z,101998.00
2022-11-10T10:09:36.858Z,101995.47
2022-11-10T10:12:12.039Z,101988.97
2022-11-10T10:14:49.506Z,101987.06
2022-11-10T10:17:24.803Z,101994.41
2022-11-10T10:19:57.951Z,101990.03
2022-11-10T10:22:47.047Z,101926.63
2022-11-10T10:25:17.335Z,101997.16
2022-11-10T10:27:45.792Z,101994.84
2022-11-10T10:30:16.688Z,101999.06
2022-11-10T10:32:44.585Z,102007.00
2022-11-10T10:35:15.616Z,102004.28
2022-11-10T10:37:45.672Z,102004.50
2022-11-10T10:40:17.294Z,101996.34
2022-11-10T10:42:45.175Z,102007.84
2022-11-10T10:45:15.723Z,101966.19
2022-11-10T10:47:43.771Z,101996.09
2022-11-10T10:50:24.265Z,101998.00
2022-11-10T10:53:07.637Z,101987.09
2022-11-10T10:55:35.727Z,101990.66
2022-11-10T10:58:04.505Z,101989.81
2022-11-10T11:00:34.283Z,101987.94
2022-11-10T11:03:04.649Z,101996.34
2022-11-10T11:05:32.817Z,101956.09
2022-11-10T11:08:01.551Z,101996.09
2022-11-10T11:10:30.824Z,101957.41
2022-11-10T11:13:21.552Z,101980.31
2022-11-10T11:15:58.672Z,101993.38
2022-11-10T11:18:27.084Z,102004.28
2022-11-10T11:20:59.187Z,102013.31
2022-11-10T11:23:44.417Z,102019.78
2022-11-10T11:26:16.237Z,102030.69
2022-11-10T11:28:47.384Z,102033.41
2022-11-10T11:31:20.364Z,102031.53
2022-11-10T11:33:48.506Z,102031.75
2022-11-10T11:36:21.670Z,102027.72
2022-11-10T11:38:54.365Z,102038.66
2022-11-10T11:41:30.063Z,102036.97
2022-11-10T11:44:08.948Z,102040.53
2022-11-10T11:46:43.539Z,102041.16
2022-11-10T11:49:33.166Z,102047.03
2022-11-10T11:52:03.684Z,102048.72
2022-11-10T11:54:38.876Z,102059.63
2022-11-10T11:57:15.142Z,102065.06
2022-11-10T11:59:57.699Z,102059.44
2022-11-10T12:02:53.454Z,102064.22
2022-11-10T12:05:30.261Z,102062.34
2022-11-10T12:08:00.370Z,102052.75
2022-11-10T12:10:34.333Z,102062.53
2022-11-10T12:13:14.089Z,102064.88
2022-11-10T12:15:45.787Z,102060.88
2022-11-10T12:18:23.006Z,102070.34
2022-11-10T12:20:56.072Z,102079.53
2022-11-10T12:23:26.444Z,102079.53
2022-11-10T12:25:58.729Z,102049.47
2022-11-10T12:28:27.588Z,102073.06
2022-11-10T12:31:01.612Z,102069.28
2022-11-10T12:33:36.290Z,102062.50
2022-11-10T12:36:06.357Z,102077.66
2022-11-10T12:38:42.281Z,102074.94
2022-11-10T12:41:12.109Z,102074.75
2022-11-10T12:43:41.994Z,102052.81
2022-11-10T12:46:11.073Z,102074.09
2022-11-10T12:48:44.104Z,102066.94
2022-11-10T12:51:14.746Z,102063.59
2022-11-10T12:53:42.924Z,102035.78
2022-11-10T12:56:13.939Z,102061.91
2022-11-10T12:58:41.835Z,102077.84
2022-11-10T13:01:14.033Z,102072.41
2022-11-10T13:03:54.200Z,102082.44
2022-11-10T13:06:26.437Z,102050.25
2022-11-10T13:08:54.373Z,102084.13
2022-11-10T13:11:25.088Z,102091.28
2022-11-10T13:13:59.097Z,102026.19
2022-11-10T13:16:52.925Z,102105.94
2022-11-10T13:19:50.567Z,102105.94
2022-11-10T13:22:33.201Z,102100.47
2022-11-10T13:25:39.633Z,102098.78
2022-11-10T13:28:09.328Z,102065.31
2022-11-10T13:30:41.961Z,102090.63
2022-11-10T13:33:37.550Z,102105.09
2022-11-10T13:36:08.397Z,102034.75
2022-11-10T13:38:37.705Z,102093.16
2022-11-10T13:41:21.027Z,102103.03
2022-11-10T13:43:49.787Z,102104.06
2022-11-10T13:46:17.658Z,102109.31
2022-11-10T13:49:15.472Z,102103.03
2022-11-10T13:51:46.689Z,102059.00
2022-11-10T13:54:25.750Z,102101.16
2022-11-10T13:57:14.888Z,102106.78
2022-11-10T13:59:48.880Z,102111.19
2022-11-10T14:02:48.400Z,102111.00
2022-11-10T14:06:03.102Z,102112.03
2022-11-10T14:08:44.434Z,102114.78
2022-11-10T14:11:21.032Z,102115.81
2022-11-10T14:13:51.690Z,102113.06
2022-11-10T14:16:21.206Z,102110.53
2022-11-10T14:19:00.263Z,102117.69
2022-11-10T14:21:31.503Z,102112.03
2022-11-10T14:24:05.308Z,102103.03
2022-11-10T14:26:36.144Z,102019.13
2022-11-10T14:29:35.842Z,102103.88
2022-11-10T14:32:04.882Z,102095.81
2022-11-10T14:34:33.853Z,102105.94
2022-11-10T14:37:03.092Z,102106.78
2022-11-10T14:39:33.993Z,102104.06
2022-11-10T14:42:03.681Z,102108.47
2022-11-10T14:44:32.098Z,102095.56
2022-11-10T14:47:14.602Z,102110.53
2022-11-10T14:49:43.857Z,102111.38
2022-11-10T14:52:12.779Z,102112.22
2022-11-10T14:54:44.778Z,102098.09
2022-11-10T14:57:17.987Z,102111.56
2022-11-10T14:59:46.207Z,102114.09
2022-11-10T15:02:16.151Z,102122.28
2022-11-10T15:04:46.152Z,102114.94
2022-11-10T15:07:14.343Z,102112.22
2022-11-10T15:10:02.375Z,102122.09
2022-11-10T15:12:31.366Z,102109.31
2022-11-10T15:14:59.747Z,102098.78
2022-11-10T15:17:45.828Z,102096.91
2022-11-10T15:20:30.780Z,102074.94
2022-11-10T15:22:59.114Z,102114.94
2022-11-10T15:25:37.288Z,102114.09
2022-11-10T15:28:16.900Z,102121.25
2022-11-10T15:30:52.244Z,102116.66
2022-11-10T15:33:22.945Z,102121.25
2022-11-10T15:35:50.774Z,102129.63
2022-11-10T15:38:27.603Z,102111.13
2022-11-10T15:41:07.674Z,102126.69
2022-11-10T15:43:35.596Z,102124.38
2022-11-10T15:46:04.268Z,102130.44
2022-11-10T15:48:37.614Z,102130.28
2022-11-10T15:51:05.672Z,102144.09
2022-11-10T15:53:34.539Z,102153.09
2022-11-10T15:56:02.448Z,102152.25
2022-11-10T15:58:31.698Z,102144.94
2022-11-10T16:00:59.569Z,102144.94
2022-11-10T16:03:27.811Z,102139.47
2022-11-10T16:05:55.682Z,102138.44
2022-11-10T16:08:23.988Z,102134.03
2022-11-10T16:10:53.337Z,102132.16
2022-11-10T16:13:23.915Z,102140.31
2022-11-10T16:15:53.431Z,102118.84
2022-11-10T16:18:22.440Z,102131.03
2022-11-10T16:20:50.675Z,102148.69
2022-11-10T16:23:18.602Z,102147.00
2022-11-10T16:25:46.499Z,102152.25
2022-11-10T16:28:16.630Z,102162.13
2022-11-10T16:30:45.831Z,102160.84
2022-11-10T16:33:17.414Z,102159.91
2022-11-10T16:35:45.723Z,102176.16
2022-11-10T16:38:17.678Z,102191.25
2022-11-10T16:40:45.869Z,102195.00
2022-11-10T16:43:15.245Z,102195.66
2022-11-10T16:45:43.785Z,102205.72
2022-11-10T16:48:14.013Z,102213.03
2022-11-10T16:50:43.580Z,102213.03
2022-11-10T16:53:15.081Z,102219.34
2022-11-10T16:55:42.965Z,102226.47
2022-11-10T16:58:11.384Z,102226.66
2022-11-10T17:00:39.410Z,102227.69
2022-11-10T17:03:08.462Z,102233.16
2022-11-10T17:05:36.374Z,102224.97
2022-11-10T17:08:06.234Z,102225.81
2022-11-10T17:10:34.135Z,102231.09
2022-11-10T17:13:02.204Z,102223.09
2022-11-10T17:15:30.119Z,102226.66
2022-11-10T17:17:59.849Z,102226.66
2022-11-10T17:20:33.365Z,102235.69
2022-11-10T17:23:01.411Z,102240.09
2022-11-10T17:25:32.180Z,102237.38
2022-11-10T17:28:00.114Z,102237.38
2022-11-10T17:30:27.985Z,102248.47
2022-11-10T17:33:04.700Z,102256.81
2022-11-10T17:35:37.696Z,102258.69
2022-11-10T17:38:09.488Z,102265.00
2022-11-10T17:40:39.132Z,102271.28
2022-11-10T17:43:06.998Z,102273.56
2022-11-10T17:45:35.285Z,102272.72
2022-11-10T17:48:03.505Z,102275.03
2022-11-10T17:50:31.586Z,102259.13
2022-11-10T17:53:00.142Z,102294.97
2022-11-10T17:55:33.752Z,102301.25
2022-11-10T17:58:03.907Z,102298.94
2022-11-10T18:00:31.830Z,102301.47
2022-11-10T18:02:59.687Z,102307.94
2022-11-10T18:05:27.778Z,102311.97
2022-11-10T18:07:56.236Z,102309.44
2022-11-10T18:10:27.020Z,102287.75
2022-11-10T18:12:55.232Z,102303.34
2022-11-10T18:15:24.726Z,102306.06
2022-11-10T18:17:53.831Z,102305.88
2022-11-10T18:20:24.165Z,102310.69
2022-11-10T18:22:52.316Z,102305.22
2022-11-10T18:25:20.212Z,102284.09
2022-11-10T18:27:50.893Z,102305.88
2022-11-10T18:30:19.142Z,102318.63
2022-11-10T18:32:51.690Z,102316.97
2022-11-10T18:35:19.543Z,102317.16
2022-11-10T18:37:47.413Z,102314.25
2022-11-10T18:40:15.326Z,102309.16
2022-11-10T18:42:45.545Z,102301.84
2022-11-10T18:45:14.043Z,102299.78
2022-11-10T18:47:42.075Z,102299.78
2022-11-10T18:50:11.931Z,102298.75
2022-11-10T18:52:40.074Z,102302.50
2022-11-10T18:55:09.379Z,102301.66
2022-11-10T18:57:37.246Z,102299.78
2022-11-10T19:00:09.015Z,102265.91
2022-11-10T19:02:39.844Z,102316.97
2022-11-10T19:05:08.288Z,102318.00
2022-11-10T19:07:37.532Z,102322.22
2022-11-10T19:10:06.264Z,102300.72
2022-11-10T19:12:34.563Z,102322.44
2022-11-10T19:15:02.396Z,102327.88
2022-11-10T19:17:30.285Z,102327.66
2022-11-10T19:19:58.153Z,102298.88
2022-11-10T19:22:26.024Z,102314.63
2022-11-10T19:25:10.779Z,102330.97
2022-11-10T19:27:38.626Z,102337.72
2022-11-10T19:30:09.490Z,102340.44
2022-11-10T19:32:37.666Z,102329.38
2022-11-10T19:35:05.899Z,102343.38
2022-11-10T19:37:34.990Z,102319.06
2022-11-10T19:40:04.645Z,102344.22
2022-11-10T19:42:33.058Z,102347.78
2022-11-10T19:45:01.623Z,102340.66
2022-11-10T19:47:30.968Z,102350.69
2022-11-10T19:49:58.840Z,102346.94
2022-11-10T19:52:26.809Z,102334.72
2022-11-10T19:54:54.795Z,102348.81
2022-11-10T19:57:24.267Z,102344.41
2022-11-10T19:59:52.165Z,102337.06
2022-11-10T20:02:20.013Z,102329.09
2022-11-10T20:05:05.132Z,102316.78
2022-11-10T20:07:50.627Z,102342.72
2022-11-10T20:10:18.760Z,102346.47
2022-11-10T20:12:48.354Z,102352.75
2022-11-10T20:15:16.618Z,102347.13
2022-11-10T20:17:44.484Z,102335.09
2022-11-10T20:20:12.389Z,102340.81
2022-11-10T20:22:40.306Z,102342.72
2022-11-10T20:25:09.008Z,102339.97
2022-11-10T20:27:36.918Z,102344.97
2022-11-10T20:30:09.237Z,102347.31
2022-11-10T20:32:37.105Z,102349.84
2022-11-10T20:35:05.486Z,102340.81
2022-11-10T20:37:33.822Z,102343.38
2022-11-10T20:40:02.550Z,102330.06
2022-11-10T20:42:30.545Z,102313.97
2022-11-10T20:44:58.444Z,102344.41
2022-11-10T20:47:28.642Z,102351.34
2022-11-10T20:49:56.662Z,102341.50
2022-11-10T20:52:24.896Z,102346.09
2022-11-10T20:54:52.792Z,102348.81
2022-11-10T20:57:20.740Z,102354.44
2022-11-10T20:59:49.275Z,102358.03
2022-11-10T21:02:17.446Z,102359.91
2022-11-10T21:04:46.733Z,102365.16
2022-11-10T21:07:14.755Z,102369.78
2022-11-10T21:09:42.828Z,102372.31
2022-11-10T21:12:28.486Z,102383.22
2022-11-10T21:14:56.505Z,102379.81
2022-11-10T21:17:25.384Z,102373.53
2022-11-10T21:19:55.567Z,102372.69
2022-11-10T21:22:23.783Z,102375.22
2022-11-10T21:24:51.678Z,102371.81
2022-11-10T21:27:19.736Z,102378.97
2022-11-10T21:29:47.623Z,102379.81
2022-11-10T21:32:15.821Z,102377.09
2022-11-10T21:34:43.772Z,102371.81
2022-11-10T21:37:13.162Z,102382.53
2022-11-10T21:39:42.267Z,102381.69
2022-11-10T21:42:10.584Z,102387.16
2022-11-10T21:44:38.531Z,102396.34
2022-11-10T21:47:06.543Z,102405.38
2022-11-10T21:49:34.439Z,102391.94
2022-11-10T21:52:02.745Z,102359.63
2022-11-10T21:54:31.988Z,102376.16
2022-11-10T21:56:59.925Z,102396.16
2022-11-10T21:59:27.781Z,102407.25
2022-11-10T22:01:55.949Z,102413.53
2022-11-10T22:04:23.878Z,102406.22
2022-11-10T22:07:09.280Z,102404.34
2022-11-10T22:09:56.617Z,102400.78
2022-11-10T22:12:41.988Z,102405.38
2022-11-10T22:15:31.008Z,102409.97
2022-11-10T22:18:16.135Z,102419.00
2022-11-10T22:20:44.065Z,102414.56
2022-11-10T22:23:12.313Z,102399.28
2022-11-10T22:25:41.560Z,102402.00
2022-11-10T22:28:09.480Z,102411.84
2022-11-10T22:30:37.587Z,102411.00
2022-11-10T22:33:26.945Z,102412.22
2022-11-10T22:35:57.906Z,102417.28
2022-11-10T22:38:25.953Z,102416.44
2022-11-10T22:41:15.828Z,102416.44
2022-11-10T22:44:01.519Z,102407.47
2022-11-10T22:46:29.413Z,102410.34
2022-11-10T22:48:57.269Z,102410.34
2022-11-10T22:51:25.504Z,102343.09
2022-11-10T22:53:53.412Z,102422.28
2022-11-10T22:56:22.687Z,102432.16
2022-11-10T22:58:53.371Z,102426.72
2022-11-10T23:01:25.277Z,102430.28
2022-11-10T23:03:53.133Z,102428.59
2022-11-10T23:06:21.577Z,102439.47
2022-11-10T23:08:49.509Z,102440.50
2022-11-10T23:11:19.093Z,102444.06
2022-11-10T23:13:49.778Z,102413.63
2022-11-10T23:16:19.282Z,102436.47
2022-11-10T23:18:47.444Z,102438.81
2022-11-10T23:21:16.208Z,102437.78
2022-11-10T23:23:44.263Z,102439.66
2022-11-10T23:26:13.424Z,102436.94
2022-11-10T23:28:41.572Z,102434.22
2022-11-10T23:31:11.907Z,102411.38
2022-11-10T23:33:40.379Z,102429.59
2022-11-10T23:36:09.150Z,102433.19
2022-11-10T23:38:37.699Z,102427.72
2022-11-10T23:41:06.131Z,102434.22
2022-11-10T23:43:34.379Z,102439.47
2022-11-10T23:46:07.247Z,102434.88
2022-11-10T23:48:37.025Z,102312.72
2022-11-10T23:51:05.136Z,102419.75
2022-11-10T23:53:33.341Z,102435.72
2022-11-10T23:56:01.919Z,102437.59
2022-11-10T23:58:29.788Z,102432.16
